This is the latest recevied weather packets stored in our database for station/object K6JWN. If no packets are shown the sender has not sent any weather packets the latest 10 day(s).
| Time | Temp. | Humidity | Pressure | Rain* | Wind** | Luminosity | Snow |
|---|---|---|---|---|---|---|---|
| 1787504656 | 25° C | 38% | 1013.1 hPa | 0 mm | - | - | - |
| 1787504057 | 23.89° C | 44% | 1013.1 hPa | 0 mm | - | - | - |
| 1787503456 | 24.44° C | 42% | 1013 hPa | 0 mm | - | - | - |
| 1787502856 | 23.89° C | 41% | 1013.1 hPa | 0 mm | - | - | - |
| 1787502256 | 23.89° C | 42% | 1013.1 hPa | 0 mm | - | - | - |
| 1787501656 | 22.78° C | 44% | 1013.1 hPa | 0 mm | - | - | - |
| 1787501056 | 22.22° C | 46% | 1013 hPa | 0 mm | - | - | - |
| 1787500456 | 21.67° C | 45% | 1013 hPa | 0 mm | - | - | - |
| 1787499857 | 21.11° C | 47% | 1013 hPa | 0 mm | - | - | - |
| 1787499256 | 20° C | 49% | 1013 hPa | 0 mm | - | - | - |
| 1787498656 | 19.44° C | 50% | 1012.8 hPa | 0 mm | - | - | - |
| 1787498056 | 18.33° C | 54% | 1012.8 hPa | 0 mm | - | - | - |
| 1787497456 | 17.78° C | 55% | 1012.9 hPa | 0 mm | - | - | - |
| 1787496856 | 16.67° C | 58% | 1012.8 hPa | 0 mm | - | - | - |
| 1787496256 | 15.56° C | 59% | 1012.8 hPa | 0 mm | - | - | - |
| 1787495656 | 15° C | 61% | 1012.7 hPa | 0 mm | - | - | - |
| 1787495056 | 15° C | 62% | 1012.7 hPa | 0 mm | - | - | - |
| 1787494456 | 14.44° C | 62% | 1012.7 hPa | 0 mm | - | - | - |
| 1787493856 | 14.44° C | 61% | 1012.6 hPa | 0 mm | - | - | - |
| 1787493256 | 14.44° C | 61% | 1012.5 hPa | 0 mm | - | - | - |
| 1787492656 | 14.44° C | 61% | 1012.5 hPa | 0 mm | - | - | - |
| 1787492057 | 14.44° C | 61% | 1012.3 hPa | 0 mm | - | - | - |
| 1787491456 | 14.44° C | 61% | 1012.2 hPa | 0 mm | - | - | - |
| 1787490856 | 14.44° C | 61% | 1012.3 hPa | 0 mm | - | - | - |
| 1787490256 | 14.44° C | 61% | 1012.1 hPa | 0 mm | - | - | - |
* Rain latest hour (hover to see other rain measurements)
** Current wind speed in m/s (hover to see current wind gust speed)